createdAt,value
2019-02-28T00:01:40.135Z,3.23
2019-02-28T00:05:42.205Z,3.20
2019-02-28T00:09:44.249Z,2.80
2019-02-28T00:13:46.135Z,2.53
2019-02-28T00:17:48.042Z,2.70
2019-02-28T00:21:49.937Z,3.60
2019-02-28T00:25:52.861Z,3.50
2019-02-28T00:29:54.748Z,2.90
2019-02-28T00:33:56.635Z,2.97
2019-02-28T00:37:58.599Z,3.73
2019-02-28T00:42:00.502Z,2.73
2019-02-28T00:46:02.421Z,2.60
2019-02-28T00:50:05.346Z,2.60
2019-02-28T00:54:08.684Z,3.07
2019-02-28T00:58:10.904Z,3.87
2019-02-28T01:02:12.884Z,3.90
2019-02-28T01:06:14.768Z,4.43
2019-02-28T01:10:17.082Z,3.83
2019-02-28T01:14:19.005Z,3.13
2019-02-28T01:18:20.955Z,2.93
2019-02-28T01:22:22.859Z,4.25
2019-02-28T01:26:24.763Z,3.90
2019-02-28T01:30:26.738Z,4.70
2019-02-28T01:34:32.061Z,3.50
2019-02-28T01:38:32.704Z,2.57
2019-02-28T01:42:34.673Z,3.35
2019-02-28T01:46:36.572Z,3.10
2019-02-28T01:50:38.501Z,3.97
2019-02-28T01:54:41.378Z,3.43
2019-02-28T01:58:43.280Z,3.60
2019-02-28T02:02:45.202Z,4.23
2019-02-28T02:06:47.456Z,3.50
2019-02-28T02:10:49.448Z,3.70
2019-02-28T02:14:53.045Z,3.27
2019-02-28T02:18:54.959Z,3.00
2019-02-28T02:22:56.890Z,3.08
2019-02-28T02:26:58.810Z,3.63
2019-02-28T02:36:23.839Z,3.12
2019-02-28T02:40:25.759Z,3.40
2019-02-28T02:44:31.774Z,3.73
2019-02-28T02:48:31.275Z,3.47
2019-02-28T02:52:33.200Z,3.30
2019-02-28T02:56:40.668Z,4.00
2019-02-28T03:00:38.719Z,3.80
2019-02-28T03:04:40.672Z,4.63
2019-02-28T03:08:42.583Z,4.00
2019-02-28T03:12:44.668Z,4.00
2019-02-28T03:16:46.582Z,3.80
2019-02-28T03:20:48.506Z,4.90
2019-02-28T03:24:52.072Z,3.33
2019-02-28T03:28:55.265Z,4.47
2019-02-28T03:32:57.166Z,3.63
2019-02-28T03:36:59.078Z,3.60
2019-02-28T03:41:01.446Z,5.13
2019-02-28T03:45:03.836Z,4.80
2019-02-28T03:49:11.015Z,4.00
2019-02-28T03:53:09.411Z,3.20
2019-02-28T03:57:11.395Z,3.93
2019-02-28T04:01:13.376Z,5.37
2019-02-28T04:05:15.290Z,4.37
2019-02-28T04:09:17.207Z,4.22
2019-02-28T04:13:20.318Z,3.08
2019-02-28T04:17:22.317Z,3.40
2019-02-28T04:21:24.234Z,4.75
2019-02-28T04:25:26.284Z,4.58
2019-02-28T04:29:31.124Z,3.37
2019-02-28T04:33:37.352Z,4.50
2019-02-28T04:37:35.416Z,3.77
2019-02-28T04:41:37.332Z,4.00
2019-02-28T04:45:39.238Z,4.43
2019-02-28T04:49:41.144Z,3.53
2019-02-28T04:53:43.072Z,4.63
2019-02-28T04:57:44.994Z,4.63
2019-02-28T05:01:46.924Z,4.47
2019-02-28T05:05:48.876Z,3.43
2019-02-28T05:09:50.780Z,4.80
2019-02-28T05:13:52.704Z,5.07
2019-02-28T05:17:55.850Z,3.70
2019-02-28T05:21:58.247Z,4.10
2019-02-28T05:26:00.332Z,6.07
2019-02-28T05:30:02.245Z,4.37
2019-02-28T05:34:04.494Z,5.00
2019-02-28T05:38:06.414Z,4.00
2019-02-28T05:42:08.328Z,3.93
2019-02-28T05:46:10.303Z,4.73
2019-02-28T05:50:16.598Z,4.37
2019-02-28T05:54:17.235Z,4.30
2019-02-28T05:58:20.854Z,4.00
2019-02-28T06:02:23.348Z,4.10
2019-02-28T06:06:26.629Z,5.28
2019-02-28T06:10:29.500Z,4.00
2019-02-28T06:14:31.410Z,5.53
2019-02-28T06:18:33.600Z,4.92
2019-02-28T06:22:36.300Z,4.13
2019-02-28T06:26:38.326Z,5.30
2019-02-28T06:30:41.452Z,6.00
2019-02-28T06:34:43.841Z,5.43
2019-02-28T06:38:45.766Z,8.20
2019-02-28T06:42:47.795Z,9.43
2019-02-28T06:46:49.690Z,7.80
2019-02-28T06:50:51.593Z,7.07
2019-02-28T06:54:54.340Z,8.63
2019-02-28T06:58:56.412Z,5.00
2019-02-28T07:02:58.334Z,7.27
2019-02-28T07:07:00.261Z,8.67
2019-02-28T07:11:02.181Z,9.08
2019-02-28T07:15:04.836Z,9.77
2019-02-28T07:19:06.755Z,9.53
2019-02-28T07:23:08.682Z,10.23
2019-02-28T07:27:10.608Z,8.00
2019-02-28T07:31:12.518Z,9.17
2019-02-28T07:35:14.786Z,11.13
2019-02-28T07:39:16.761Z,12.10
2019-02-28T07:43:19.371Z,12.25
2019-02-28T07:47:21.328Z,11.10
2019-02-28T07:51:26.172Z,13.20
2019-02-28T07:55:27.343Z,13.20
2019-02-28T07:59:30.466Z,12.70
2019-02-28T08:03:32.414Z,11.97
2019-02-28T08:07:34.329Z,12.30
2019-02-28T08:11:36.255Z,12.58
2019-02-28T08:15:38.323Z,12.40
2019-02-28T08:19:40.250Z,10.90
2019-02-28T08:23:42.145Z,12.17
2019-02-28T08:27:44.140Z,12.33
2019-02-28T08:31:46.053Z,12.13
2019-02-28T08:35:49.031Z,11.07
2019-02-28T08:39:50.946Z,12.10
2019-02-28T08:43:52.871Z,12.20
2019-02-28T08:47:56.764Z,12.07
2019-02-28T08:51:58.412Z,12.30
2019-02-28T08:56:00.315Z,12.03
2019-02-28T09:00:02.259Z,12.00
2019-02-28T09:04:05.857Z,12.83
2019-02-28T09:08:07.811Z,12.73
2019-02-28T09:12:09.864Z,12.97
2019-02-28T09:16:11.779Z,13.03
2019-02-28T09:20:17.499Z,12.50
2019-02-28T09:24:19.456Z,13.33
2019-02-28T09:28:21.386Z,12.27
2019-02-28T09:32:23.356Z,12.43
2019-02-28T09:36:25.272Z,13.53
2019-02-28T09:40:29.460Z,13.32
2019-02-28T09:44:31.754Z,14.80
2019-02-28T09:48:37.218Z,14.33
2019-02-28T09:52:41.253Z,13.87
2019-02-28T09:56:44.505Z,14.33
2019-02-28T10:00:49.289Z,14.53
2019-02-28T10:04:50.021Z,14.77
2019-02-28T10:08:51.947Z,15.73
2019-02-28T10:12:53.877Z,14.70
2019-02-28T10:16:55.787Z,15.20
2019-02-28T10:20:58.970Z,17.67
2019-02-28T10:25:03.553Z,17.30
2019-02-28T10:29:07.450Z,16.70
2019-02-28T10:33:09.234Z,16.70
2019-02-28T10:37:11.147Z,17.73
2019-02-28T10:41:15.373Z,16.70
2019-02-28T10:45:17.669Z,16.97
2019-02-28T10:49:21.094Z,17.03
2019-02-28T10:53:23.368Z,17.57
2019-02-28T10:57:25.282Z,16.97
2019-02-28T11:01:27.208Z,17.10
2019-02-28T11:05:35.065Z,15.27
2019-02-28T11:09:36.995Z,15.83
2019-02-28T11:13:57.723Z,17.57
2019-02-28T11:18:09.760Z,17.37
2019-02-28T11:22:11.992Z,17.13
2019-02-28T11:26:13.986Z,16.07
2019-02-28T11:30:31.663Z,16.03
2019-02-28T11:34:34.667Z,16.67
2019-02-28T11:38:36.594Z,16.13
2019-02-28T11:42:38.566Z,16.27
2019-02-28T11:46:40.509Z,16.33
2019-02-28T11:50:44.944Z,15.50
2019-02-28T11:54:46.332Z,14.93
2019-02-28T11:58:51.476Z,15.80
2019-02-28T12:02:53.522Z,15.17
2019-02-28T12:06:57.384Z,15.00
2019-02-28T12:11:01.925Z,15.17
2019-02-28T12:15:05.987Z,14.53
2019-02-28T12:19:07.755Z,14.50
2019-02-28T12:23:09.756Z,14.93
2019-02-28T12:27:11.688Z,13.73
2019-02-28T12:31:14.091Z,14.70
2019-02-28T12:35:16.191Z,15.27
2019-02-28T12:39:18.155Z,14.63
2019-02-28T12:43:20.075Z,15.53
2019-02-28T12:47:22.776Z,15.13
2019-02-28T12:51:24.709Z,16.15
2019-02-28T12:55:26.629Z,14.85
2019-02-28T12:59:28.556Z,13.13
2019-02-28T13:03:30.468Z,13.33
2019-02-28T13:07:33.915Z,14.18
2019-02-28T13:11:36.543Z,14.67
2019-02-28T13:15:38.531Z,13.70
2019-02-28T13:19:40.468Z,14.33
2019-02-28T13:23:42.455Z,14.37
2019-02-28T13:27:45.242Z,16.03
2019-02-28T13:31:49.049Z,13.73
2019-02-28T13:35:51.000Z,13.80
2019-02-28T13:39:53.000Z,13.67
2019-02-28T13:43:59.220Z,14.43
2019-02-28T13:47:58.548Z,13.97
2019-02-28T13:52:00.541Z,13.67
2019-02-28T13:56:04.935Z,14.63
2019-02-28T14:00:14.493Z,12.90
2019-02-28T14:04:19.395Z,12.93
2019-02-28T14:08:20.322Z,12.87
2019-02-28T14:12:22.417Z,12.87
2019-02-28T14:16:26.932Z,13.95
2019-02-28T14:20:28.486Z,12.00
2019-02-28T14:24:32.015Z,12.78
2019-02-28T14:28:35.613Z,12.43
2019-02-28T14:32:38.684Z,12.60
2019-02-28T14:36:41.824Z,12.60
2019-02-28T14:40:45.201Z,11.60
2019-02-28T14:44:47.117Z,12.17
2019-02-28T14:48:49.044Z,12.67
2019-02-28T14:52:54.295Z,15.07
2019-02-28T14:56:56.220Z,15.00
2019-02-28T15:00:58.149Z,14.27
2019-02-28T15:05:00.057Z,15.90
2019-02-28T15:09:01.993Z,15.10
2019-02-28T15:13:05.875Z,15.78
2019-02-28T15:17:07.816Z,14.97
2019-02-28T15:21:09.717Z,16.33
2019-02-28T15:25:21.016Z,14.65
2019-02-28T15:29:23.384Z,14.60
2019-02-28T15:33:27.459Z,16.17
2019-02-28T15:37:33.373Z,14.70
2019-02-28T15:41:35.016Z,15.32
2019-02-28T15:45:37.542Z,15.72
2019-02-28T15:49:41.768Z,14.97
2019-02-28T15:53:43.168Z,14.60
2019-02-28T15:57:45.352Z,14.63
2019-02-28T16:01:47.300Z,13.57
2019-02-28T16:05:49.239Z,14.07
2019-02-28T16:09:54.161Z,14.10
2019-02-28T16:13:57.465Z,14.45
2019-02-28T16:17:58.950Z,14.63
2019-02-28T16:22:01.664Z,14.27
2019-02-28T16:26:04.060Z,14.47
2019-02-28T16:30:13.711Z,15.27
2019-02-28T16:34:15.730Z,15.20
2019-02-28T16:38:17.677Z,15.23
2019-02-28T16:42:19.694Z,15.38
2019-02-28T16:46:21.797Z,14.57
2019-02-28T16:50:23.794Z,13.07
2019-02-28T16:54:27.788Z,14.83
2019-02-28T16:58:29.374Z,15.07
2019-02-28T17:02:31.305Z,13.22
2019-02-28T17:06:35.658Z,12.47
2019-02-28T17:10:40.052Z,12.53
2019-02-28T17:14:41.795Z,13.47
2019-02-28T17:18:43.721Z,14.27
2019-02-28T17:22:45.660Z,14.93
2019-02-28T17:26:49.236Z,11.60
2019-02-28T17:30:56.768Z,15.80
2019-02-28T17:34:59.036Z,15.00
2019-02-28T17:39:01.609Z,15.83
2019-02-28T17:43:05.212Z,12.93
2019-02-28T17:47:20.223Z,16.27
2019-02-28T17:51:37.886Z,14.90
2019-02-28T17:55:53.184Z,23.20
2019-02-28T18:00:16.140Z,16.93
2019-02-28T18:04:46.413Z,17.05
2019-02-28T18:09:12.636Z,17.20
2019-02-28T18:13:44.551Z,20.13
2019-02-28T18:18:28.204Z,15.63
2019-02-28T18:22:52.870Z,50.00
2019-02-28T18:27:36.691Z,17.20
2019-02-28T18:31:38.676Z,18.43
2019-02-28T18:35:41.380Z,11.87
2019-02-28T18:39:44.595Z,21.50
2019-02-28T18:43:46.930Z,18.33
2019-02-28T18:47:48.874Z,32.27
2019-02-28T18:51:51.873Z,24.50
2019-02-28T18:55:53.871Z,36.07
2019-02-28T18:59:55.806Z,27.60
2019-02-28T19:03:57.740Z,23.73
2019-02-28T19:07:59.772Z,18.33
2019-02-28T19:12:01.821Z,16.87
2019-02-28T19:16:04.233Z,19.53
2019-02-28T19:20:10.165Z,19.23
2019-02-28T19:24:12.095Z,20.03
2019-02-28T19:28:14.008Z,18.83
2019-02-28T19:32:15.967Z,19.93
2019-02-28T19:36:17.910Z,19.00
2019-02-28T19:40:19.914Z,19.13
2019-02-28T19:44:21.883Z,19.35
2019-02-28T19:48:23.794Z,18.98
2019-02-28T19:52:25.823Z,19.30
2019-02-28T19:56:27.864Z,19.55
2019-02-28T20:00:29.872Z,20.40
2019-02-28T20:04:31.814Z,19.77
2019-02-28T20:08:33.726Z,18.17
2019-02-28T20:12:35.731Z,17.32
2019-02-28T20:16:37.739Z,17.80
2019-02-28T20:20:39.673Z,17.83
2019-02-28T20:24:41.685Z,17.27
2019-02-28T20:28:43.606Z,16.63
2019-02-28T20:32:45.791Z,14.30
2019-02-28T20:36:47.986Z,13.60
2019-02-28T20:40:49.971Z,13.40
2019-02-28T20:44:52.930Z,13.47
2019-02-28T20:48:54.862Z,13.07
2019-02-28T20:52:57.884Z,11.60
2019-02-28T20:56:59.820Z,11.07
2019-02-28T21:01:01.839Z,11.63
2019-02-28T21:05:04.744Z,10.10
2019-02-28T21:09:07.928Z,9.47
2019-02-28T21:13:11.458Z,9.90
2019-02-28T21:17:13.372Z,9.53
2019-02-28T21:21:15.288Z,8.63
2019-02-28T21:25:18.887Z,8.97
2019-02-28T21:29:20.860Z,8.33
2019-02-28T21:33:22.771Z,8.00
2019-02-28T21:37:24.940Z,7.84
2019-02-28T21:41:26.914Z,7.25
2019-02-28T21:45:30.000Z,7.30
2019-02-28T21:49:32.951Z,7.40
2019-02-28T21:53:34.869Z,6.83
2019-02-28T21:57:36.788Z,7.10
2019-02-28T22:01:38.763Z,6.80
2019-02-28T22:05:40.679Z,6.00
2019-02-28T22:09:42.574Z,7.27
2019-02-28T22:13:44.488Z,7.20
2019-02-28T22:17:46.398Z,6.90
2019-02-28T22:21:48.320Z,7.30
2019-02-28T22:25:50.247Z,7.53
2019-02-28T22:29:52.141Z,7.50
2019-02-28T22:33:59.885Z,7.20
2019-02-28T22:38:01.794Z,7.20
2019-02-28T22:42:03.777Z,7.00
2019-02-28T22:46:05.705Z,7.40
2019-02-28T22:50:09.911Z,6.30
2019-02-28T22:54:11.819Z,7.23
2019-02-28T22:58:13.733Z,6.90
2019-02-28T23:02:15.781Z,6.83
2019-02-28T23:06:17.749Z,7.53
2019-02-28T23:10:20.176Z,6.05
2019-02-28T23:14:22.082Z,6.87
2019-02-28T23:18:23.982Z,7.50
2019-02-28T23:22:25.893Z,7.30
2019-02-28T23:26:27.968Z,6.22
2019-02-28T23:31:09.243Z,6.12
2019-02-28T23:35:16.317Z,6.43
2019-02-28T23:39:18.221Z,7.10
2019-02-28T23:43:20.143Z,6.17
2019-02-28T23:47:22.047Z,7.17
2019-02-28T23:51:23.946Z,7.10
2019-02-28T23:55:25.846Z,6.77
2019-02-28T23:59:27.769Z,7.05
